Time;durP1;ratioP1;P1;durP2;ratioP2;P2;SDS_P1;SDS_P2;PMS_P1;PMS_P2;Temp;Humidity;BMP_temperature;BMP_pressure;BME280_temperature;BME280_humidity;BME280_pressure;Samples;Min_cycle;Max_cycle;Signal;HPM_P1;HPM_P2
2022/06/30 00:00:34;;;;;;;8.88;7.03;;;;;;;;;;5062558;28;20346;-77
2022/06/30 00:02:59;;;;;;;8.95;6.82;;;;;;;;;;5061843;28;20413;-77
2022/06/30 00:05:24;;;;;;;7.40;6.63;;;;;;;;;;5061762;28;20500;-78
2022/06/30 00:07:49;;;;;;;8.67;7.20;;;;;;;;;;5060960;28;20323;-77
2022/06/30 00:10:15;;;;;;;9.70;7.00;;;;;;;;;;5060618;28;20769;-77
2022/06/30 00:12:40;;;;;;;10.73;7.80;;;;;;;;;;5061639;28;20104;-77
2022/06/30 00:15:07;;;;;;;8.60;7.43;;;;;;;;;;5060738;28;20036;-76
2022/06/30 00:17:32;;;;;;;8.88;6.78;;;;;;;;;;5061316;28;20116;-77
2022/06/30 00:19:57;;;;;;;8.75;6.70;;;;;;;;;;5061839;28;20494;-76
2022/06/30 00:22:23;;;;;;;11.13;7.10;;;;;;;;;;5061302;28;20029;-77
2022/06/30 00:24:48;;;;;;;8.50;7.00;;;;;;;;;;5043762;28;20265;-77
2022/06/30 00:27:13;;;;;;;11.30;7.57;;;;;;;;;;5061071;28;20033;-77
2022/06/30 00:29:39;;;;;;;8.02;6.40;;;;;;;;;;5062746;28;20277;-77
2022/06/30 00:32:04;;;;;;;10.63;7.20;;;;;;;;;;5061564;28;20402;-77
2022/06/30 00:34:30;;;;;;;9.38;7.07;;;;;;;;;;5060729;28;20032;-77
2022/06/30 00:36:55;;;;;;;8.80;7.13;;;;;;;;;;5061708;28;20466;-75
2022/06/30 00:39:21;;;;;;;12.43;6.78;;;;;;;;;;5043869;28;20751;-77
2022/06/30 00:41:46;;;;;;;9.32;6.88;;;;;;;;;;5061574;28;20035;-77
2022/06/30 00:44:15;;;;;;;9.32;6.75;;;;;;;;;;5061576;28;20431;-77
2022/06/30 00:46:40;;;;;;;10.00;6.97;;;;;;;;;;5060237;28;20390;-77
2022/06/30 00:49:07;;;;;;;9.35;6.25;;;;;;;;;;5062388;28;20021;-76
2022/06/30 00:51:35;;;;;;;10.30;6.80;;;;;;;;;;5063118;28;20040;-76
2022/06/30 00:54:02;;;;;;;13.57;6.82;;;;;;;;;;5062860;28;20025;-76
2022/06/30 00:56:29;;;;;;;8.32;6.50;;;;;;;;;;5045040;28;20390;-76
2022/06/30 00:58:58;;;;;;;8.98;6.53;;;;;;;;;;5062873;28;20021;-77
2022/06/30 01:01:25;;;;;;;9.45;6.80;;;;;;;;;;5062919;28;20029;-77
2022/06/30 01:03:51;;;;;;;9.50;6.40;;;;;;;;;;5061856;28;20029;-75
2022/06/30 01:06:17;;;;;;;10.20;6.18;;;;;;;;;;5062323;28;20407;-77
2022/06/30 01:08:42;;;;;;;8.80;6.50;;;;;;;;;;5062344;28;20103;-76
2022/06/30 01:13:51;;;;;;;11.15;5.78;;;;;;;;;;5060975;28;20028;-77
2022/06/30 01:16:19;;;;;;;9.40;5.77;;;;;;;;;;5057122;28;20025;-77
2022/06/30 01:18:45;;;;;;;8.05;6.05;;;;;;;;;;5055024;28;20309;-77
2022/06/30 01:21:10;;;;;;;10.15;6.03;;;;;;;;;;5056120;28;20068;-76
2022/06/30 01:23:35;;;;;;;8.57;6.07;;;;;;;;;;5056138;28;20443;-76
2022/06/30 01:26:00;;;;;;;9.97;6.10;;;;;;;;;;5056212;28;20721;-77
2022/06/30 01:28:26;;;;;;;7.40;5.80;;;;;;;;;;5055771;28;20257;-77
2022/06/30 01:30:51;;;;;;;10.60;5.80;;;;;;;;;;5056858;28;20105;-77
2022/06/30 01:33:17;;;;;;;7.33;6.23;;;;;;;;;;5056553;28;20032;-76
2022/06/30 01:35:42;;;;;;;8.13;6.10;;;;;;;;;;5056017;28;20254;-76
2022/06/30 01:38:07;;;;;;;8.07;5.88;;;;;;;;;;5055979;28;20258;-77
2022/06/30 01:40:35;;;;;;;7.87;5.93;;;;;;;;;;5056673;28;20028;-77
2022/06/30 01:43:01;;;;;;;10.70;5.82;;;;;;;;;;5056070;28;20265;-76
2022/06/30 01:45:26;;;;;;;7.05;5.68;;;;;;;;;;5037864;28;20029;-77
2022/06/30 01:47:52;;;;;;;8.82;5.97;;;;;;;;;;5055876;28;20024;-77
2022/06/30 01:50:24;;;;;;;9.95;6.18;;;;;;;;;;5038410;28;20021;-77
2022/06/30 01:52:49;;;;;;;7.32;6.03;;;;;;;;;;5055369;28;20036;-76
2022/06/30 01:55:15;;;;;;;8.10;6.40;;;;;;;;;;5055446;28;20029;-76
2022/06/30 01:57:41;;;;;;;8.95;5.85;;;;;;;;;;5055615;28;20327;-76
2022/06/30 02:00:12;;;;;;;6.40;5.72;;;;;;;;;;5055511;28;20470;-77
2022/06/30 02:02:38;;;;;;;7.35;5.25;;;;;;;;;;5055599;28;20029;-77
2022/06/30 02:05:04;;;;;;;9.05;5.43;;;;;;;;;;5056110;28;20035;-77
2022/06/30 02:07:30;;;;;;;10.27;6.30;;;;;;;;;;5055901;28;20067;-77
2022/06/30 02:09:56;;;;;;;9.75;6.72;;;;;;;;;;5038002;28;20033;-78
2022/06/30 02:15:09;;;;;;;10.05;7.65;;;;;;;;;;5056289;28;20051;-77
2022/06/30 02:17:35;;;;;;;12.48;7.88;;;;;;;;;;5056295;28;20033;-77
2022/06/30 02:20:01;;;;;;;13.18;8.55;;;;;;;;;;5040632;28;20055;-77
2022/06/30 02:22:27;;;;;;;11.98;7.75;;;;;;;;;;5059462;28;20082;-77
2022/06/30 02:24:52;;;;;;;13.40;7.82;;;;;;;;;;5057559;28;20493;-77
2022/06/30 02:27:20;;;;;;;11.38;8.40;;;;;;;;;;5057562;28;20056;-77
2022/06/30 02:29:46;;;;;;;8.77;7.65;;;;;;;;;;5057300;28;20021;-77
2022/06/30 02:32:11;;;;;;;12.18;7.93;;;;;;;;;;5058689;28;20106;-77
2022/06/30 02:34:36;;;;;;;10.10;7.50;;;;;;;;;;5057582;28;20371;-76
2022/06/30 02:37:02;;;;;;;12.77;7.13;;;;;;;;;;5057825;28;20309;-77
2022/06/30 02:39:27;;;;;;;8.82;7.18;;;;;;;;;;5059111;28;20307;-77
2022/06/30 02:41:52;;;;;;;12.87;7.10;;;;;;;;;;5057968;28;20040;-77
2022/06/30 02:44:18;;;;;;;8.97;7.50;;;;;;;;;;5057789;28;20341;-77
2022/06/30 02:46:43;;;;;;;9.50;7.17;;;;;;;;;;5057327;28;20294;-77
2022/06/30 02:49:08;;;;;;;9.68;7.57;;;;;;;;;;5058688;28;20262;-78
2022/06/30 02:51:33;;;;;;;10.17;7.30;;;;;;;;;;5039499;28;20048;-77
2022/06/30 02:53:59;;;;;;;12.02;7.28;;;;;;;;;;5057560;28;20264;-77
2022/06/30 02:56:24;;;;;;;10.80;7.35;;;;;;;;;;5056813;28;20032;-77
2022/06/30 02:58:50;;;;;;;12.27;8.05;;;;;;;;;;5056883;28;20533;-77
2022/06/30 03:01:15;;;;;;;12.32;7.55;;;;;;;;;;5038840;28;20115;-76
2022/06/30 03:03:41;;;;;;;10.10;7.22;;;;;;;;;;5056896;28;20025;-77
2022/06/30 03:06:06;;;;;;;11.60;7.70;;;;;;;;;;5057017;28;20037;-77
2022/06/30 03:08:32;;;;;;;9.45;7.65;;;;;;;;;;5056938;28;20025;-77
2022/06/30 03:10:57;;;;;;;10.45;7.57;;;;;;;;;;5056601;28;20453;-77
2022/06/30 03:13:22;;;;;;;11.03;7.90;;;;;;;;;;5057516;28;20025;-77
2022/06/30 03:15:49;;;;;;;12.03;7.50;;;;;;;;;;5057510;28;20296;-77
2022/06/30 03:18:15;;;;;;;10.45;7.97;;;;;;;;;;5057034;28;20356;-78
2022/06/30 03:20:40;;;;;;;8.93;7.53;;;;;;;;;;5057271;28;20052;-77
2022/06/30 03:23:05;;;;;;;15.30;7.50;;;;;;;;;;5056991;28;20032;-77
2022/06/30 03:25:30;;;;;;;9.43;7.38;;;;;;;;;;5056422;28;20265;-77
2022/06/30 03:27:56;;;;;;;8.83;7.53;;;;;;;;;;5055237;28;20104;-76
2022/06/30 03:30:21;;;;;;;11.53;7.63;;;;;;;;;;5057806;28;20266;-79
2022/06/30 03:32:46;;;;;;;9.93;7.40;;;;;;;;;;5056246;28;20269;-77
2022/06/30 03:35:11;;;;;;;8.93;7.70;;;;;;;;;;5038521;28;20041;-77
2022/06/30 03:37:36;;;;;;;11.07;7.57;;;;;;;;;;5056694;28;20277;-77
2022/06/30 03:40:03;;;;;;;11.77;7.33;;;;;;;;;;5055850;28;20262;-77
2022/06/30 03:42:28;;;;;;;9.05;7.15;;;;;;;;;;5062406;28;20286;-78
2022/06/30 03:44:53;;;;;;;12.55;7.70;;;;;;;;;;5056848;28;20505;-76
2022/06/30 03:47:18;;;;;;;11.20;7.97;;;;;;;;;;5057064;28;20024;-77
2022/06/30 03:49:44;;;;;;;12.20;7.77;;;;;;;;;;5059773;28;20302;-78
2022/06/30 03:52:09;;;;;;;10.33;7.83;;;;;;;;;;5057519;28;20238;-78
2022/06/30 03:54:34;;;;;;;10.53;8.00;;;;;;;;;;5055856;28;20261;-76
2022/06/30 03:57:00;;;;;;;11.40;8.05;;;;;;;;;;5056054;28;20265;-79
2022/06/30 03:59:25;;;;;;;10.23;8.07;;;;;;;;;;5056472;28;20084;-77
2022/06/30 04:01:51;;;;;;;19.05;10.80;;;;;;;;;;5055792;28;20048;-76
2022/06/30 04:04:16;;;;;;;14.80;8.88;;;;;;;;;;5056563;28;20060;-77
2022/06/30 04:06:41;;;;;;;13.73;9.47;;;;;;;;;;5055717;28;20029;-77
2022/06/30 04:09:06;;;;;;;13.55;8.75;;;;;;;;;;5055583;28;20316;-77
2022/06/30 04:11:32;;;;;;;15.67;9.07;;;;;;;;;;5055626;28;20450;-77
2022/06/30 04:13:57;;;;;;;15.32;9.30;;;;;;;;;;5037285;28;20269;-77
2022/06/30 04:16:23;;;;;;;13.77;9.63;;;;;;;;;;5053894;28;20397;-77
2022/06/30 04:18:48;;;;;;;15.00;9.53;;;;;;;;;;5055146;28;20052;-77
2022/06/30 04:21:16;;;;;;;17.80;10.97;;;;;;;;;;5055223;28;20282;-78
2022/06/30 04:23:42;;;;;;;17.38;10.52;;;;;;;;;;5054178;28;20258;-78
2022/06/30 04:26:07;;;;;;;14.30;9.77;;;;;;;;;;5038360;28;20052;-77
2022/06/30 04:28:32;;;;;;;14.27;9.20;;;;;;;;;;5055912;28;20017;-76
2022/06/30 04:33:41;;;;;;;13.05;9.43;;;;;;;;;;5059994;28;20265;-79
2022/06/30 04:36:06;;;;;;;12.87;9.10;;;;;;;;;;5055928;28;20445;-78
2022/06/30 04:38:31;;;;;;;13.13;8.73;;;;;;;;;;5057066;28;20262;-78
2022/06/30 04:43:40;;;;;;;11.98;9.43;;;;;;;;;;5055945;28;20329;-77
2022/06/30 04:46:05;;;;;;;14.87;8.87;;;;;;;;;;5055110;28;20060;-77
2022/06/30 04:48:31;;;;;;;16.53;9.53;;;;;;;;;;5055179;28;20304;-77
2022/06/30 04:50:56;;;;;;;13.57;8.87;;;;;;;;;;5054977;28;20303;-77
2022/06/30 04:53:21;;;;;;;14.67;9.57;;;;;;;;;;5054504;28;20258;-77
2022/06/30 04:55:46;;;;;;;19.10;10.02;;;;;;;;;;5054096;28;20312;-77
2022/06/30 04:58:12;;;;;;;16.70;9.93;;;;;;;;;;5037475;28;20024;-77
2022/06/30 05:00:37;;;;;;;18.17;10.40;;;;;;;;;;5054915;28;20094;-77
2022/06/30 05:03:02;;;;;;;17.55;10.43;;;;;;;;;;5037137;28;20246;-76
2022/06/30 05:05:30;;;;;;;20.73;10.17;;;;;;;;;;5055122;28;20458;-78
2022/06/30 05:07:55;;;;;;;14.27;10.57;;;;;;;;;;5054529;28;20258;-77
2022/06/30 05:10:21;;;;;;;17.27;10.43;;;;;;;;;;5055318;28;20043;-76
2022/06/30 05:12:46;;;;;;;19.90;11.60;;;;;;;;;;5056433;28;20329;-77
2022/06/30 05:15:11;;;;;;;20.50;11.07;;;;;;;;;;5054665;28;20317;-77
2022/06/30 05:17:36;;;;;;;16.75;10.68;;;;;;;;;;5054337;28;20320;-78
2022/06/30 05:20:02;;;;;;;23.10;12.43;;;;;;;;;;5055888;28;20033;-77
2022/06/30 05:22:28;;;;;;;20.23;13.18;;;;;;;;;;5056599;28;20278;-78
2022/06/30 05:27:37;;;;;;;;;;;;;;;;;;5057241;28;20032;-78
2022/06/30 05:30:03;;;;;;;27.33;14.67;;;;;;;;;;5055653;28;20378;-78
2022/06/30 05:32:38;;;;;;;20.85;11.45;;;;;;;;;;5054695;28;20035;-78
2022/06/30 05:35:05;;;;;;;18.38;11.48;;;;;;;;;;5055225;28;20028;-78
2022/06/30 05:37:30;;;;;;;15.98;11.38;;;;;;;;;;5054955;28;20158;-77
2022/06/30 05:39:56;;;;;;;20.97;11.40;;;;;;;;;;5055598;28;20058;-77
2022/06/30 05:42:21;;;;;;;14.48;10.40;;;;;;;;;;5054854;28;20280;-75
2022/06/30 05:44:46;;;;;;;15.67;9.17;;;;;;;;;;5056716;28;20045;-77
2022/06/30 05:47:12;;;;;;;13.27;9.13;;;;;;;;;;5055214;28;20261;-78
2022/06/30 05:49:37;;;;;;;14.32;9.18;;;;;;;;;;5056985;28;20160;-76
2022/06/30 05:52:03;;;;;;;13.23;9.48;;;;;;;;;;5054337;28;20032;-77
2022/06/30 05:54:31;;;;;;;15.10;8.85;;;;;;;;;;5055282;28;20040;-77
2022/06/30 05:56:56;;;;;;;17.42;9.27;;;;;;;;;;5054116;28;20068;-78
2022/06/30 05:59:22;;;;;;;17.30;9.17;;;;;;;;;;5054016;28;20025;-76
2022/06/30 06:01:47;;;;;;;16.88;9.15;;;;;;;;;;5055343;28;20274;-77
2022/06/30 06:04:12;;;;;;;13.68;9.77;;;;;;;;;;5054414;28;20021;-77
2022/06/30 06:07:03;;;;;;;13.27;9.63;;;;;;;;;;5085114;22;20040;-77
2022/06/30 06:10:16;;;;;;;;;;;;;;;;;;;;;
2022/06/30 06:13:17;;;;;;;;;;;;;;;;;;;;;
2022/06/30 06:19:29;;;;;;;15.68;10.30;;;;;;;;;;5053712;28;20060;-78
2022/06/30 06:21:54;;;;;;;15.47;10.83;;;;;;;;;;5077852;28;20079;-77
2022/06/30 06:24:30;;;;;;;17.80;9.88;;;;;;;;;;5057465;28;20249;-78
2022/06/30 06:26:56;;;;;;;15.85;10.68;;;;;;;;;;5075634;28;20107;-78
2022/06/30 06:29:23;;;;;;;16.20;11.10;;;;;;;;;;5076885;28;20520;-79
2022/06/30 06:31:49;;;;;;;18.05;10.88;;;;;;;;;;5076142;28;20088;-78
2022/06/30 06:34:14;;;;;;;14.18;9.98;;;;;;;;;;5058526;28;20464;-78
2022/06/30 06:36:39;;;;;;;22.17;11.73;;;;;;;;;;5076947;28;20047;-78
2022/06/30 06:39:07;;;;;;;17.13;10.63;;;;;;;;;;5075610;28;20103;-76
2022/06/30 06:41:33;;;;;;;18.95;11.50;;;;;;;;;;5056422;28;20032;-78
2022/06/30 06:43:59;;;;;;;20.55;12.77;;;;;;;;;;5075252;28;20020;-78
2022/06/30 06:46:27;;;;;;;22.55;13.43;;;;;;;;;;5074907;28;20032;-77
2022/06/30 06:49:01;;;;;;;19.08;12.52;;;;;;;;;;5076796;28;20016;-77
2022/06/30 06:51:27;;;;;;;25.02;13.63;;;;;;;;;;5075900;28;20031;-77
2022/06/30 06:53:52;;;;;;;20.90;12.85;;;;;;;;;;5074000;28;20048;-78
2022/06/30 06:56:18;;;;;;;27.88;15.10;;;;;;;;;;5074555;28;20056;-77
2022/06/30 06:58:43;;;;;;;22.98;14.85;;;;;;;;;;5075082;28;20029;-78
2022/06/30 07:01:09;;;;;;;24.15;14.88;;;;;;;;;;5077460;28;20048;-78
2022/06/30 07:03:34;;;;;;;26.00;16.38;;;;;;;;;;5078204;28;20059;-76
2022/06/30 07:05:59;;;;;;;27.97;15.77;;;;;;;;;;5077806;28;20028;-78
2022/06/30 07:08:25;;;;;;;25.00;14.80;;;;;;;;;;5079373;28;20252;-77
2022/06/30 07:10:50;;;;;;;26.70;15.05;;;;;;;;;;5079463;28;20126;-78
2022/06/30 07:13:15;;;;;;;25.95;16.10;;;;;;;;;;5079240;28;20036;-77
2022/06/30 07:15:41;;;;;;;29.23;15.10;;;;;;;;;;5080210;28;20024;-77
2022/06/30 07:18:06;;;;;;;24.08;15.48;;;;;;;;;;5077843;28;20253;-79
2022/06/30 07:20:31;;;;;;;32.15;16.45;;;;;;;;;;5079389;28;20028;-79
2022/06/30 07:22:57;;;;;;;27.30;15.93;;;;;;;;;;5078622;28;20028;-77
2022/06/30 07:25:22;;;;;;;30.95;16.38;;;;;;;;;;5076778;28;20032;-77
2022/06/30 07:27:47;;;;;;;28.20;15.53;;;;;;;;;;5078200;28;20127;-78
2022/06/30 07:30:12;;;;;;;29.63;15.83;;;;;;;;;;5079769;28;20257;-77
2022/06/30 07:32:38;;;;;;;29.42;16.73;;;;;;;;;;5078075;28;20268;-78
2022/06/30 07:35:05;;;;;;;34.38;17.48;;;;;;;;;;5078936;28;20063;-77
2022/06/30 07:37:30;;;;;;;30.50;16.73;;;;;;;;;;5077945;28;20040;-77
2022/06/30 07:39:55;;;;;;;29.60;16.13;;;;;;;;;;5078934;28;20448;-77
2022/06/30 07:42:21;;;;;;;26.98;16.90;;;;;;;;;;5079101;28;20024;-77
2022/06/30 07:44:46;;;;;;;26.73;16.17;;;;;;;;;;5079800;28;20029;-78
2022/06/30 07:47:11;;;;;;;29.83;16.70;;;;;;;;;;5076438;28;20158;-77
2022/06/30 07:49:38;;;;;;;26.77;16.33;;;;;;;;;;5077467;28;20311;-78
2022/06/30 07:52:03;;;;;;;27.10;17.58;;;;;;;;;;5060096;28;20318;-78
2022/06/30 07:54:29;;;;;;;27.65;16.45;;;;;;;;;;5078950;28;20032;-78
2022/06/30 07:56:54;;;;;;;26.08;16.58;;;;;;;;;;5078925;28;20024;-77
2022/06/30 07:59:19;;;;;;;29.70;16.07;;;;;;;;;;5076078;28;20021;-78
2022/06/30 08:01:44;;;;;;;25.27;16.13;;;;;;;;;;5078255;28;20277;-77
2022/06/30 08:04:11;;;;;;;23.47;15.80;;;;;;;;;;5059301;28;20257;-77
2022/06/30 08:06:37;;;;;;;36.63;17.45;;;;;;;;;;5077157;28;20261;-77
2022/06/30 08:09:02;;;;;;;28.27;16.08;;;;;;;;;;5078596;28;20028;-77
2022/06/30 08:11:28;;;;;;;31.63;16.23;;;;;;;;;;5077791;28;20020;-77
2022/06/30 08:13:53;;;;;;;26.45;15.95;;;;;;;;;;5076217;28;20024;-79
2022/06/30 08:16:18;;;;;;;25.23;16.38;;;;;;;;;;5078410;28;20070;-78
2022/06/30 08:18:43;;;;;;;24.80;16.00;;;;;;;;;;5060779;28;20112;-78
2022/06/30 08:21:09;;;;;;;25.03;16.30;;;;;;;;;;5076421;28;20024;-77
2022/06/30 08:23:35;;;;;;;26.60;15.77;;;;;;;;;;5058649;28;20348;-78
2022/06/30 08:26:01;;;;;;;22.33;15.88;;;;;;;;;;5060288;28;20482;-78
2022/06/30 08:28:26;;;;;;;30.27;16.95;;;;;;;;;;5076714;28;20024;-78
2022/06/30 08:30:51;;;;;;;25.27;16.60;;;;;;;;;;5080503;28;20047;-77
2022/06/30 08:33:17;;;;;;;23.63;15.15;;;;;;;;;;5080650;28;20032;-78
2022/06/30 08:48:38;;;;;;;23.15;15.88;;;;;;;;;;4974343;28;20122;-77
2022/06/30 08:51:55;;;;;;;23.33;15.52;;;;;;;;;;4999409;28;20116;-77
2022/06/30 08:54:36;;;;;;;22.40;15.20;;;;;;;;;;5040915;28;20407;-77
2022/06/30 08:57:12;;;;;;;21.17;14.02;;;;;;;;;;5038399;28;20544;-78
2022/06/30 09:00:05;;;;;;;22.85;15.50;;;;;;;;;;5038541;28;20493;-79
2022/06/30 09:02:31;;;;;;;27.13;16.52;;;;;;;;;;5037976;28;20037;-79
2022/06/30 09:04:59;;;;;;;26.05;15.15;;;;;;;;;;5038684;28;20422;-76
2022/06/30 09:07:37;;;;;;;24.75;15.60;;;;;;;;;;5038879;28;20021;-78
2022/06/30 09:10:09;;;;;;;21.08;14.45;;;;;;;;;;5035983;28;20025;-79
2022/06/30 09:12:46;;;;;;;;;;;;;;;;;;;;;
2022/06/30 09:22:42;;;;;;;26.75;15.52;;;;;;;;;;4999278;28;20077;-79
2022/06/30 10:13:55;;;;;;;;;;;;;;;;;;;;;
2022/06/30 10:21:06;;;;;;;;;;;;;;;;;;;;;
2022/06/30 10:52:24;;;;;;;;;;;;;;;;;;;;;
2022/06/30 11:02:36;;;;;;;16.30;10.50;;;;;;;;;;5066128;28;20121;-79
2022/06/30 11:05:41;;;;;;;;;;;;;;;;;;;;;
2022/06/30 11:18:41;;;;;;;12.32;9.82;;;;;;;;;;4925758;29;20040;-79
2022/06/30 11:22:05;;;;;;;17.00;10.48;;;;;;;;;;4923086;29;20119;-80
2022/06/30 11:25:08;;;;;;;;;;;;;;;;;;;;;
2022/06/30 11:31:37;;;;;;;12.65;8.75;;;;;;;;;;5002032;28;20042;-78
2022/06/30 11:34:46;;;;;;;;;;;;;;;;;;;;;
2022/06/30 11:37:52;;;;;;;15.02;8.10;;;;;;;;;;5002317;28;20110;-78
2022/06/30 11:41:54;;;;;;;16.33;8.85;;;;;;;;;;5065123;28;20043;-79
2022/06/30 11:43:40;;;;;;;11.70;8.40;;;;;;;;;;5082060;28;20058;-79
2022/06/30 11:50:08;;;;;;;;;;;;;;;;;;;;;
2022/06/30 12:04:59;;;;;;;14.25;9.68;;;;;;;;;;4968424;26;20068;-79
2022/06/30 12:11:16;;;;;;;15.02;9.88;;;;;;;;;;4928722;28;20539;-78
2022/06/30 12:14:36;;;;;;;12.32;10.07;;;;;;;;;;5004602;28;20033;-78
2022/06/30 12:18:05;;;;;;;12.73;10.00;;;;;;;;;;4942441;29;20040;-78
2022/06/30 12:21:03;;;;;;;13.10;11.05;;;;;;;;;;4958909;28;20500;-78
2022/06/30 12:24:03;;;;;;;12.57;10.68;;;;;;;;;;4971281;28;20046;-78
2022/06/30 12:26:56;;;;;;;15.25;11.10;;;;;;;;;;5004109;28;20077;-78
2022/06/30 12:30:23;;;;;;;;;;;;;;;;;;;;;
2022/06/30 12:33:07;;;;;;;15.68;11.77;;;;;;;;;;4969426;28;20125;-79
2022/06/30 12:36:04;;;;;;;;;;;;;;;;;;5005012;28;20026;-78
2022/06/30 12:39:02;;;;;;;17.60;11.82;;;;;;;;;;4985296;28;19916;-79
2022/06/30 12:41:40;;;;;;;19.00;11.70;;;;;;;;;;4985108;28;20042;-79
2022/06/30 12:44:31;;;;;;;14.40;11.10;;;;;;;;;;4985942;28;20026;-78
2022/06/30 12:54:46;;;;;;;15.30;11.93;;;;;;;;;;4922318;29;20040;-80
2022/06/30 12:57:49;;;;;;;15.90;12.18;;;;;;;;;;4924476;29;20028;-78
2022/06/30 13:31:36;;;;;;;14.13;9.90;;;;;;;;;;4992714;28;20022;-79
2022/06/30 13:34:08;;;;;;;12.68;9.27;;;;;;;;;;5000963;28;20022;-80
2022/06/30 13:40:27;;;;;;;12.65;9.50;;;;;;;;;;4965321;28;20031;-78
2022/06/30 13:42:55;;;;;;;12.15;9.25;;;;;;;;;;5000474;28;20022;-82
2022/06/30 13:46:03;;;;;;;9.77;8.23;;;;;;;;;;4998948;28;20033;-78
2022/06/30 14:02:57;;;;;;;9.85;7.75;;;;;;;;;;4870348;29;20038;-81
2022/06/30 14:05:23;;;;;;;14.13;8.10;;;;;;;;;;4920864;29;20055;-79
2022/06/30 14:08:58;;;;;;;13.25;8.00;;;;;;;;;;4921873;29;20032;-78
2022/06/30 14:29:00;;;;;;;10.07;7.25;;;;;;;;;;4936589;29;20042;-77
2022/06/30 14:31:56;;;;;;;8.93;7.68;;;;;;;;;;4868185;29;20041;-78
2022/06/30 14:38:39;;;;;;;11.75;8.15;;;;;;;;;;4985802;28;20042;-80
2022/06/30 14:50:58;;;;;;;;;;;;;;;;;;;;;
2022/06/30 14:54:24;;;;;;;;;;;;;;;;;;;;;
2022/06/30 14:56:51;;;;;;;11.38;6.60;;;;;;;;;;4977148;28;20444;-79
2022/06/30 14:59:31;;;;;;;11.80;6.45;;;;;;;;;;4987662;28;20038;-80
2022/06/30 15:02:12;;;;;;;10.63;6.18;;;;;;;;;;5006333;28;20090;-80
2022/06/30 15:04:46;;;;;;;8.25;6.88;;;;;;;;;;5006007;28;20041;-77
2022/06/30 15:10:39;;;;;;;9.70;7.07;;;;;;;;;;4938513;28;20040;-79
2022/06/30 15:13:14;;;;;;;9.93;7.30;;;;;;;;;;5004362;28;20049;-81
2022/06/30 15:19:13;;;;;;;8.55;6.75;;;;;;;;;;5004841;28;20026;-79
2022/06/30 15:24:59;;;;;;;9.85;7.20;;;;;;;;;;5004568;28;20045;-80
2022/06/30 15:28:00;;;;;;;12.63;7.03;;;;;;;;;;5004632;28;20492;-79
2022/06/30 15:30:45;;;;;;;;;;;;;;;;;;;;;
2022/06/30 15:33:31;;;;;;;9.85;6.95;;;;;;;;;;4999992;28;20109;-78
2022/06/30 15:36:25;;;;;;;9.45;6.63;;;;;;;;;;5004842;28;20033;-79
2022/06/30 15:39:49;;;;;;;11.95;5.97;;;;;;;;;;5004055;28;20395;-79
2022/06/30 15:42:45;;;;;;;6.78;6.00;;;;;;;;;;5004592;28;20030;-78
2022/06/30 15:46:12;;;;;;;9.57;6.80;;;;;;;;;;5004427;28;20056;-81
2022/06/30 15:51:53;;;;;;;8.15;6.28;;;;;;;;;;4888568;29;20133;-80
2022/06/30 15:54:41;;;;;;;11.00;5.88;;;;;;;;;;4924049;29;20036;-79
2022/06/30 15:57:42;;;;;;;10.90;6.20;;;;;;;;;;4925960;29;20136;-80
2022/06/30 16:00:23;;;;;;;;;;;;;;;;;;;;;
2022/06/30 16:09:21;;;;;;;8.38;5.78;;;;;;;;;;5000673;28;20030;-78
2022/06/30 16:11:49;;;;;;;9.43;5.85;;;;;;;;;;5004854;28;20026;-78
2022/06/30 16:14:48;;;;;;;11.73;5.93;;;;;;;;;;4985930;28;20045;-82
2022/06/30 16:17:31;;;;;;;7.93;5.72;;;;;;;;;;5004140;28;20136;-78
2022/06/30 16:20:11;;;;;;;9.80;5.65;;;;;;;;;;4986670;28;20031;-81
2022/06/30 16:22:40;;;;;;;11.50;6.13;;;;;;;;;;5002142;28;20462;-79
2022/06/30 16:25:12;;;;;;;7.07;5.88;;;;;;;;;;5002664;28;20090;-79
2022/06/30 16:27:40;;;;;;;9.00;5.93;;;;;;;;;;4984427;28;20048;-79
2022/06/30 16:30:34;;;;;;;10.25;6.32;;;;;;;;;;5002776;28;20026;-77
2022/06/30 16:33:43;;;;;;;11.05;6.00;;;;;;;;;;4984635;28;20022;-82
2022/06/30 16:36:22;;;;;;;10.27;5.70;;;;;;;;;;4979965;28;20073;-78
2022/06/30 16:39:21;;;;;;;8.77;6.15;;;;;;;;;;5002005;28;20037;-78
2022/06/30 16:42:24;;;;;;;10.18;5.97;;;;;;;;;;4983806;28;20108;-78
2022/06/30 16:45:00;;;;;;;8.90;6.70;;;;;;;;;;5003199;28;20487;-80
2022/06/30 16:48:05;;;;;;;6.95;5.65;;;;;;;;;;5003885;28;20041;-79
2022/06/30 16:50:33;;;;;;;10.15;6.40;;;;;;;;;;5001218;28;20073;-79
2022/06/30 16:53:04;;;;;;;10.68;6.38;;;;;;;;;;5001274;28;20089;-79
2022/06/30 16:55:33;;;;;;;9.90;6.60;;;;;;;;;;4999460;28;20026;-80
2022/06/30 16:58:02;;;;;;;11.13;6.30;;;;;;;;;;4985668;28;20030;-78
2022/06/30 17:00:29;;;;;;;9.95;6.05;;;;;;;;;;4985438;28;20351;-80
2022/06/30 17:03:00;;;;;;;10.05;6.18;;;;;;;;;;4985850;28;20026;-79
2022/06/30 17:06:16;;;;;;;8.70;6.40;;;;;;;;;;5003831;28;20022;-80
2022/06/30 17:08:47;;;;;;;15.02;6.97;;;;;;;;;;4991009;28;20455;-79
2022/06/30 17:11:21;;;;;;;11.55;6.55;;;;;;;;;;5005060;28;20086;-81
2022/06/30 17:13:55;;;;;;;8.77;6.57;;;;;;;;;;5017135;28;20033;-78
2022/06/30 17:16:47;;;;;;;10.77;6.78;;;;;;;;;;5016346;28;20022;-79
2022/06/30 17:19:21;;;;;;;9.00;5.75;;;;;;;;;;5016527;28;20045;-78
2022/06/30 17:22:01;;;;;;;;;;;;;;;;;;;;;
2022/06/30 17:25:11;;;;;;;10.50;5.45;;;;;;;;;;4958312;28;20536;-78
2022/06/30 17:28:26;;;;;;;;;;;;;;;;;;;;;
2022/06/30 17:31:04;;;;;;;10.27;6.07;;;;;;;;;;4983418;28;20116;-79
2022/06/30 17:33:38;;;;;;;8.07;5.85;;;;;;;;;;4998492;28;20079;-79
2022/06/30 17:36:46;;;;;;;8.95;5.90;;;;;;;;;;4981737;28;20048;-79
2022/06/30 17:40:07;;;;;;;;;;;;;;;;;;;;;
2022/06/30 17:43:21;;;;;;;9.93;5.88;;;;;;;;;;5000147;28;20090;-79
2022/06/30 17:46:33;;;;;;;;;;;;;;;;;;;;;
2022/06/30 17:49:12;;;;;;;7.90;5.80;;;;;;;;;;4921110;29;20121;-78
2022/06/30 17:52:10;;;;;;;8.18;5.90;;;;;;;;;;4948305;28;20061;-78
2022/06/30 17:55:16;;;;;;;7.15;5.80;;;;;;;;;;4994451;28;20064;-78
2022/06/30 17:58:18;;;;;;;7.80;5.43;;;;;;;;;;5002238;28;20027;-79
2022/06/30 18:01:09;;;;;;;10.18;5.75;;;;;;;;;;5002356;28;20026;-79
2022/06/30 18:04:13;;;;;;;11.75;6.13;;;;;;;;;;4979805;28;20039;-79
2022/06/30 18:12:49;;;;;;;6.72;5.78;;;;;;;;;;4972343;28;20037;-80
2022/06/30 18:15:19;;;;;;;6.63;5.15;;;;;;;;;;5001573;28;20034;-79
2022/06/30 18:18:36;;;;;;;9.70;5.55;;;;;;;;;;5002500;28;20023;-79
2022/06/30 18:21:07;;;;;;;8.25;5.38;;;;;;;;;;5002225;28;20080;-80
2022/06/30 18:24:22;;;;;;;7.95;5.82;;;;;;;;;;5002633;28;20031;-80
2022/06/30 18:27:57;;;;;;;11.38;5.32;;;;;;;;;;5003513;28;20046;-79
2022/06/30 18:50:59;;;;;;;7.82;5.20;;;;;;;;;;4841278;29;20180;-81
2022/06/30 19:01:16;;;;;;;9.75;6.10;;;;;;;;;;4814746;29;20050;-78
2022/06/30 19:07:01;;;;;;;8.75;5.70;;;;;;;;;;4794407;30;20061;-80
2022/06/30 19:40:37;;;;;;;;;;;;;;;;;;;;;
2022/06/30 20:01:05;;;;;;;13.00;6.68;;;;;;;;;;5145227;22;20101;-79
2022/06/30 21:16:58;;;;;;;10.88;7.93;;;;;;;;;;5064318;22;20390;-73
2022/06/30 21:19:24;;;;;;;12.20;7.82;;;;;;;;;;5053616;28;20029;-71
2022/06/30 21:21:49;;;;;;;11.67;7.93;;;;;;;;;;5053653;28;20025;-72
2022/06/30 21:24:14;;;;;;;12.20;7.83;;;;;;;;;;5053567;28;20284;-72
2022/06/30 21:26:42;;;;;;;11.67;8.17;;;;;;;;;;5053673;28;20789;-72
2022/06/30 21:29:08;;;;;;;12.93;7.53;;;;;;;;;;5053778;28;20266;-73
2022/06/30 21:31:37;;;;;;;11.85;7.18;;;;;;;;;;5053487;28;20082;-72
2022/06/30 21:34:02;;;;;;;9.25;7.53;;;;;;;;;;5053638;28;20108;-72
2022/06/30 21:36:27;;;;;;;10.83;7.60;;;;;;;;;;5053560;28;20453;-73
2022/06/30 21:38:52;;;;;;;9.32;7.53;;;;;;;;;;5053891;28;20273;-72
2022/06/30 21:41:17;;;;;;;16.07;7.70;;;;;;;;;;5035756;28;20087;-73
2022/06/30 21:43:43;;;;;;;12.67;7.70;;;;;;;;;;5053184;28;20296;-73
2022/06/30 21:46:08;;;;;;;9.77;8.23;;;;;;;;;;5053126;28;20258;-73
2022/06/30 21:48:36;;;;;;;13.50;8.27;;;;;;;;;;5053262;28;20311;-72
2022/06/30 21:51:01;;;;;;;10.77;7.85;;;;;;;;;;5053239;28;20733;-72
2022/06/30 21:53:26;;;;;;;12.45;8.32;;;;;;;;;;5053202;28;20110;-72
2022/06/30 21:55:52;;;;;;;10.50;7.90;;;;;;;;;;5053248;28;20490;-72
2022/06/30 21:58:17;;;;;;;10.88;8.07;;;;;;;;;;5053345;28;20615;-72
2022/06/30 22:00:43;;;;;;;9.88;7.55;;;;;;;;;;5053701;28;20463;-73
2022/06/30 22:03:08;;;;;;;11.87;7.83;;;;;;;;;;5053210;28;20155;-72
2022/06/30 22:05:33;;;;;;;12.77;9.00;;;;;;;;;;5035078;28;20331;-73
2022/06/30 22:07:58;;;;;;;11.57;7.90;;;;;;;;;;5053330;28;20021;-73
2022/06/30 22:10:24;;;;;;;11.48;8.27;;;;;;;;;;5053304;28;20687;-72
2022/06/30 22:12:49;;;;;;;12.30;8.32;;;;;;;;;;5054920;28;20021;-73
2022/06/30 22:15:14;;;;;;;14.73;8.20;;;;;;;;;;5059145;28;20032;-73
2022/06/30 22:17:39;;;;;;;12.80;7.87;;;;;;;;;;5059104;28;20261;-72
2022/06/30 22:20:06;;;;;;;8.93;7.63;;;;;;;;;;5059457;28;20258;-73
2022/06/30 22:22:31;;;;;;;13.65;8.35;;;;;;;;;;5059287;28;20832;-72
2022/06/30 22:24:59;;;;;;;14.02;8.02;;;;;;;;;;5059582;28;20100;-73
2022/06/30 22:27:24;;;;;;;12.38;8.10;;;;;;;;;;5041199;28;20502;-73
2022/06/30 22:29:49;;;;;;;12.35;8.55;;;;;;;;;;5059540;28;20100;-73
2022/06/30 22:32:15;;;;;;;13.17;8.37;;;;;;;;;;5058893;28;20408;-72
2022/06/30 22:34:40;;;;;;;13.40;8.60;;;;;;;;;;5060810;28;20266;-73
2022/06/30 22:37:05;;;;;;;11.00;8.00;;;;;;;;;;5063644;28;20249;-73